sensor_id;sensor_type;location;lat;lon;timestamp;temperature;humidity
77056;SHT30;67471;44.918;8.614;2023-05-07T00:00:19;19.87;52.98
77056;SHT30;67471;44.918;8.614;2023-05-07T00:03:23;19.76;53.58
77056;SHT30;67471;44.918;8.614;2023-05-07T00:06:26;19.63;53.96
77056;SHT30;67471;44.918;8.614;2023-05-07T00:09:32;19.58;54.73
77056;SHT30;67471;44.918;8.614;2023-05-07T00:12:35;19.58;55.43
77056;SHT30;67471;44.918;8.614;2023-05-07T00:15:39;19.60;54.94
77056;SHT30;67471;44.918;8.614;2023-05-07T00:18:43;19.32;55.17
77056;SHT30;67471;44.918;8.614;2023-05-07T00:21:47;19.30;54.89
77056;SHT30;67471;44.918;8.614;2023-05-07T00:24:51;19.49;54.04
77056;SHT30;67471;44.918;8.614;2023-05-07T00:27:54;19.59;53.66
77056;SHT30;67471;44.918;8.614;2023-05-07T00:30:58;19.65;53.37
77056;SHT30;67471;44.918;8.614;2023-05-07T00:34:02;19.67;53.07
77056;SHT30;67471;44.918;8.614;2023-05-07T00:37:06;19.65;53.17
77056;SHT30;67471;44.918;8.614;2023-05-07T00:40:10;19.58;52.90
77056;SHT30;67471;44.918;8.614;2023-05-07T00:43:14;19.52;52.85
77056;SHT30;67471;44.918;8.614;2023-05-07T00:46:20;19.55;52.40
77056;SHT30;67471;44.918;8.614;2023-05-07T00:49:38;19.62;51.79
77056;SHT30;67471;44.918;8.614;2023-05-07T00:52:42;19.33;52.19
77056;SHT30;67471;44.918;8.614;2023-05-07T00:55:45;19.25;52.39
77056;SHT30;67471;44.918;8.614;2023-05-07T00:58:49;19.25;52.29
77056;SHT30;67471;44.918;8.614;2023-05-07T01:01:53;19.04;52.78
77056;SHT30;67471;44.918;8.614;2023-05-07T01:04:56;19.26;51.82
77056;SHT30;67471;44.918;8.614;2023-05-07T01:08:01;19.33;51.82
77056;SHT30;67471;44.918;8.614;2023-05-07T01:11:06;19.49;51.51
77056;SHT30;67471;44.918;8.614;2023-05-07T01:14:10;19.35;52.49
77056;SHT30;67471;44.918;8.614;2023-05-07T01:17:15;19.18;53.77
77056;SHT30;67471;44.918;8.614;2023-05-07T01:20:19;19.19;54.17
77056;SHT30;67471;44.918;8.614;2023-05-07T01:23:25;19.18;54.07
77056;SHT30;67471;44.918;8.614;2023-05-07T01:26:31;19.11;54.55
77056;SHT30;67471;44.918;8.614;2023-05-07T01:29:35;19.16;54.61
77056;SHT30;67471;44.918;8.614;2023-05-07T01:33:19;19.45;54.02
77056;SHT30;67471;44.918;8.614;2023-05-07T01:36:17;19.53;53.32
77056;SHT30;67471;44.918;8.614;2023-05-07T01:39:25;19.53;53.19
77056;SHT30;67471;44.918;8.614;2023-05-07T01:42:31;19.55;53.23
77056;SHT30;67471;44.918;8.614;2023-05-07T01:45:35;19.70;52.19
77056;SHT30;67471;44.918;8.614;2023-05-07T01:48:39;19.63;52.34
77056;SHT30;67471;44.918;8.614;2023-05-07T01:51:44;19.73;52.11
77056;SHT30;67471;44.918;8.614;2023-05-07T01:54:47;19.73;53.28
77056;SHT30;67471;44.918;8.614;2023-05-07T01:57:51;19.69;55.32
77056;SHT30;67471;44.918;8.614;2023-05-07T02:00:55;19.62;56.43
77056;SHT30;67471;44.918;8.614;2023-05-07T02:03:58;19.62;56.27
77056;SHT30;67471;44.918;8.614;2023-05-07T02:07:04;19.63;54.13
77056;SHT30;67471;44.918;8.614;2023-05-07T02:10:09;19.43;53.27
77056;SHT30;67471;44.918;8.614;2023-05-07T02:13:13;19.43;53.37
77056;SHT30;67471;44.918;8.614;2023-05-07T02:16:16;19.45;52.97
77056;SHT30;67471;44.918;8.614;2023-05-07T02:19:20;19.45;52.98
77056;SHT30;67471;44.918;8.614;2023-05-07T02:22:25;19.42;53.03
77056;SHT30;67471;44.918;8.614;2023-05-07T02:25:29;19.43;53.93
77056;SHT30;67471;44.918;8.614;2023-05-07T02:28:33;19.38;56.24
77056;SHT30;67471;44.918;8.614;2023-05-07T02:31:40;19.36;57.67
77056;SHT30;67471;44.918;8.614;2023-05-07T02:34:44;19.28;57.84
77056;SHT30;67471;44.918;8.614;2023-05-07T02:37:48;19.30;58.09
77056;SHT30;67471;44.918;8.614;2023-05-07T02:40:52;19.09;58.80
77056;SHT30;67471;44.918;8.614;2023-05-07T02:43:56;19.05;59.32
77056;SHT30;67471;44.918;8.614;2023-05-07T02:46:59;18.84;59.84
77056;SHT30;67471;44.918;8.614;2023-05-07T02:50:04;18.89;59.59
77056;SHT30;67471;44.918;8.614;2023-05-07T02:53:08;18.81;59.35
77056;SHT30;67471;44.918;8.614;2023-05-07T02:56:12;18.87;59.30
77056;SHT30;67471;44.918;8.614;2023-05-07T02:59:15;18.88;59.64
77056;SHT30;67471;44.918;8.614;2023-05-07T03:02:20;18.74;59.82
77056;SHT30;67471;44.918;8.614;2023-05-07T03:05:24;18.80;59.53
77056;SHT30;67471;44.918;8.614;2023-05-07T03:08:28;18.56;59.46
77056;SHT30;67471;44.918;8.614;2023-05-07T03:11:31;18.37;60.04
77056;SHT30;67471;44.918;8.614;2023-05-07T03:14:35;18.33;60.20
77056;SHT30;67471;44.918;8.614;2023-05-07T03:17:38;18.41;59.79
77056;SHT30;67471;44.918;8.614;2023-05-07T03:20:42;17.99;61.03
77056;SHT30;67471;44.918;8.614;2023-05-07T03:23:46;17.92;61.54
77056;SHT30;67471;44.918;8.614;2023-05-07T03:26:50;18.34;59.71
77056;SHT30;67471;44.918;8.614;2023-05-07T03:29:54;18.61;56.55
77056;SHT30;67471;44.918;8.614;2023-05-07T03:32:57;18.49;56.47
77056;SHT30;67471;44.918;8.614;2023-05-07T03:36:01;18.50;56.45
77056;SHT30;67471;44.918;8.614;2023-05-07T03:39:05;18.61;56.05
77056;SHT30;67471;44.918;8.614;2023-05-07T03:42:15;18.72;55.73
77056;SHT30;67471;44.918;8.614;2023-05-07T03:45:19;18.70;55.84
77056;SHT30;67471;44.918;8.614;2023-05-07T03:48:29;18.71;57.56
77056;SHT30;67471;44.918;8.614;2023-05-07T03:51:34;18.63;59.89
77056;SHT30;67471;44.918;8.614;2023-05-07T03:54:41;18.49;61.01
77056;SHT30;67471;44.918;8.614;2023-05-07T03:57:45;18.50;61.21
77056;SHT30;67471;44.918;8.614;2023-05-07T04:00:49;18.23;62.33
77056;SHT30;67471;44.918;8.614;2023-05-07T04:04:01;17.40;62.42
77056;SHT30;67471;44.918;8.614;2023-05-07T04:07:06;16.48;64.46
77056;SHT30;67471;44.918;8.614;2023-05-07T04:10:16;16.33;65.19
77056;SHT30;67471;44.918;8.614;2023-05-07T04:13:21;16.02;66.53
77056;SHT30;67471;44.918;8.614;2023-05-07T04:16:25;15.93;66.41
77056;SHT30;67471;44.918;8.614;2023-05-07T04:19:29;16.12;65.57
77056;SHT30;67471;44.918;8.614;2023-05-07T04:22:33;16.07;65.37
77056;SHT30;67471;44.918;8.614;2023-05-07T04:25:37;16.01;65.84
77056;SHT30;67471;44.918;8.614;2023-05-07T04:29:09;16.04;65.88
77056;SHT30;67471;44.918;8.614;2023-05-07T04:32:13;16.22;65.35
77056;SHT30;67471;44.918;8.614;2023-05-07T04:35:18;16.63;63.49
77056;SHT30;67471;44.918;8.614;2023-05-07T04:38:22;16.91;62.85
77056;SHT30;67471;44.918;8.614;2023-05-07T04:41:28;17.24;61.84
77056;SHT30;67471;44.918;8.614;2023-05-07T04:44:32;17.31;61.45
77056;SHT30;67471;44.918;8.614;2023-05-07T04:47:36;17.58;60.36
77056;SHT30;67471;44.918;8.614;2023-05-07T04:50:40;17.59;60.14
77056;SHT30;67471;44.918;8.614;2023-05-07T04:53:45;17.78;59.58
77056;SHT30;67471;44.918;8.614;2023-05-07T04:56:49;17.92;58.76
77056;SHT30;67471;44.918;8.614;2023-05-07T04:59:53;18.13;57.96
77056;SHT30;67471;44.918;8.614;2023-05-07T05:02:57;18.14;57.73
77056;SHT30;67471;44.918;8.614;2023-05-07T05:06:01;18.33;57.25
77056;SHT30;67471;44.918;8.614;2023-05-07T05:09:08;18.46;56.54
77056;SHT30;67471;44.918;8.614;2023-05-07T05:12:12;18.43;56.95
77056;SHT30;67471;44.918;8.614;2023-05-07T05:15:16;18.44;56.58
77056;SHT30;67471;44.918;8.614;2023-05-07T05:18:20;18.43;56.59
77056;SHT30;67471;44.918;8.614;2023-05-07T05:21:24;18.58;56.17
77056;SHT30;67471;44.918;8.614;2023-05-07T05:24:32;18.77;55.78
77056;SHT30;67471;44.918;8.614;2023-05-07T05:27:36;19.20;54.75
77056;SHT30;67471;44.918;8.614;2023-05-07T05:30:39;19.32;54.50
77056;SHT30;67471;44.918;8.614;2023-05-07T05:33:44;19.42;54.21
77056;SHT30;67471;44.918;8.614;2023-05-07T05:36:48;19.52;55.79
77056;SHT30;67471;44.918;8.614;2023-05-07T05:39:53;19.59;58.18
77056;SHT30;67471;44.918;8.614;2023-05-07T05:42:59;19.43;58.86
77056;SHT30;67471;44.918;8.614;2023-05-07T05:46:03;19.38;59.05
77056;SHT30;67471;44.918;8.614;2023-05-07T05:49:08;19.43;58.99
77056;SHT30;67471;44.918;8.614;2023-05-07T05:52:12;19.46;58.92
77056;SHT30;67471;44.918;8.614;2023-05-07T05:55:16;19.46;58.76
77056;SHT30;67471;44.918;8.614;2023-05-07T05:58:21;19.59;58.25
77056;SHT30;67471;44.918;8.614;2023-05-07T06:01:30;19.65;57.67
77056;SHT30;67471;44.918;8.614;2023-05-07T06:04:37;19.60;57.06
77056;SHT30;67471;44.918;8.614;2023-05-07T06:07:41;19.58;57.82
77056;SHT30;67471;44.918;8.614;2023-05-07T06:10:45;19.56;58.16
77056;SHT30;67471;44.918;8.614;2023-05-07T06:13:50;19.74;57.61
77056;SHT30;67471;44.918;8.614;2023-05-07T06:16:53;19.91;57.42
77056;SHT30;67471;44.918;8.614;2023-05-07T06:19:57;20.10;57.00
77056;SHT30;67471;44.918;8.614;2023-05-07T06:23:01;20.41;56.36
77056;SHT30;67471;44.918;8.614;2023-05-07T06:26:06;21.03;54.84
77056;SHT30;67471;44.918;8.614;2023-05-07T06:29:15;21.79;52.67
77056;SHT30;67471;44.918;8.614;2023-05-07T06:32:20;22.42;50.71
77056;SHT30;67471;44.918;8.614;2023-05-07T06:35:23;22.60;50.17
77056;SHT30;67471;44.918;8.614;2023-05-07T06:38:27;23.04;48.81
77056;SHT30;67471;44.918;8.614;2023-05-07T06:41:31;23.45;48.12
77056;SHT30;67471;44.918;8.614;2023-05-07T06:44:42;23.72;47.45
77056;SHT30;67471;44.918;8.614;2023-05-07T06:47:49;23.59;48.00
77056;SHT30;67471;44.918;8.614;2023-05-07T06:50:53;23.97;47.23
77056;SHT30;67471;44.918;8.614;2023-05-07T06:53:58;24.28;46.55
77056;SHT30;67471;44.918;8.614;2023-05-07T06:57:02;24.72;45.79
77056;SHT30;67471;44.918;8.614;2023-05-07T07:00:08;25.18;45.08
77056;SHT30;67471;44.918;8.614;2023-05-07T07:03:21;25.63;44.38
77056;SHT30;67471;44.918;8.614;2023-05-07T07:06:25;25.46;44.77
77056;SHT30;67471;44.918;8.614;2023-05-07T07:09:29;25.97;43.58
77056;SHT30;67471;44.918;8.614;2023-05-07T07:12:33;26.29;43.23
77056;SHT30;67471;44.918;8.614;2023-05-07T07:15:37;26.06;43.20
77056;SHT30;67471;44.918;8.614;2023-05-07T07:18:41;25.54;43.73
77056;SHT30;67471;44.918;8.614;2023-05-07T07:21:44;25.20;44.82
77056;SHT30;67471;44.918;8.614;2023-05-07T07:24:50;25.02;45.54
77056;SHT30;67471;44.918;8.614;2023-05-07T07:27:55;24.78;46.13
77056;SHT30;67471;44.918;8.614;2023-05-07T07:31:01;24.57;46.26
77056;SHT30;67471;44.918;8.614;2023-05-07T07:34:07;24.53;46.22
77056;SHT30;67471;44.918;8.614;2023-05-07T07:37:11;24.33;46.17
77056;SHT30;67471;44.918;8.614;2023-05-07T07:40:16;23.90;46.79
77056;SHT30;67471;44.918;8.614;2023-05-07T07:43:21;23.66;47.60
77056;SHT30;67471;44.918;8.614;2023-05-07T07:46:24;23.65;47.70
77056;SHT30;67471;44.918;8.614;2023-05-07T07:49:30;23.63;47.69
77056;SHT30;67471;44.918;8.614;2023-05-07T07:52:37;23.37;47.84
77056;SHT30;67471;44.918;8.614;2023-05-07T07:55:42;23.35;48.15
77056;SHT30;67471;44.918;8.614;2023-05-07T07:58:49;23.37;48.24
77056;SHT30;67471;44.918;8.614;2023-05-07T08:01:53;23.41;48.49
77056;SHT30;67471;44.918;8.614;2023-05-07T08:05:01;23.32;48.67
77056;SHT30;67471;44.918;8.614;2023-05-07T08:08:05;23.49;48.58
77056;SHT30;67471;44.918;8.614;2023-05-07T08:11:10;23.89;47.76
77056;SHT30;67471;44.918;8.614;2023-05-07T08:14:14;24.34;46.55
77056;SHT30;67471;44.918;8.614;2023-05-07T08:17:22;24.50;45.74
77056;SHT30;67471;44.918;8.614;2023-05-07T08:20:28;24.61;45.60
77056;SHT30;67471;44.918;8.614;2023-05-07T08:23:33;24.99;44.94
77056;SHT30;67471;44.918;8.614;2023-05-07T08:26:38;25.35;44.46
77056;SHT30;67471;44.918;8.614;2023-05-07T08:29:43;25.60;43.97
77056;SHT30;67471;44.918;8.614;2023-05-07T08:32:51;25.71;43.62
77056;SHT30;67471;44.918;8.614;2023-05-07T08:35:55;26.22;42.95
77056;SHT30;67471;44.918;8.614;2023-05-07T08:38:59;26.60;42.22
77056;SHT30;67471;44.918;8.614;2023-05-07T08:42:04;27.06;41.54
77056;SHT30;67471;44.918;8.614;2023-05-07T08:45:10;27.27;41.22
77056;SHT30;67471;44.918;8.614;2023-05-07T08:48:17;27.45;40.80
77056;SHT30;67471;44.918;8.614;2023-05-07T08:51:26;27.75;40.19
77056;SHT30;67471;44.918;8.614;2023-05-07T08:54:31;28.03;39.53
77056;SHT30;67471;44.918;8.614;2023-05-07T08:57:35;28.43;38.92
77056;SHT30;67471;44.918;8.614;2023-05-07T09:00:41;28.54;38.01
77056;SHT30;67471;44.918;8.614;2023-05-07T09:03:46;28.47;38.21
77056;SHT30;67471;44.918;8.614;2023-05-07T09:06:50;28.52;38.12
77056;SHT30;67471;44.918;8.614;2023-05-07T09:09:56;28.12;38.52
77056;SHT30;67471;44.918;8.614;2023-05-07T09:13:02;27.89;38.75
77056;SHT30;67471;44.918;8.614;2023-05-07T09:16:10;27.72;38.63
77056;SHT30;67471;44.918;8.614;2023-05-07T09:19:15;27.57;39.06
77056;SHT30;67471;44.918;8.614;2023-05-07T09:22:22;27.84;38.70
77056;SHT30;67471;44.918;8.614;2023-05-07T09:25:39;28.14;38.29
77056;SHT30;67471;44.918;8.614;2023-05-07T09:28:51;28.37;37.54
77056;SHT30;67471;44.918;8.614;2023-05-07T09:31:56;28.19;37.97
77056;SHT30;67471;44.918;8.614;2023-05-07T09:35:00;28.13;37.90
77056;SHT30;67471;44.918;8.614;2023-05-07T09:38:05;28.22;38.43
77056;SHT30;67471;44.918;8.614;2023-05-07T09:41:13;28.77;40.21
77056;SHT30;67471;44.918;8.614;2023-05-07T09:44:27;29.15;39.90
77056;SHT30;67471;44.918;8.614;2023-05-07T09:47:32;29.08;40.01
77056;SHT30;67471;44.918;8.614;2023-05-07T09:50:49;29.39;40.23
77056;SHT30;67471;44.918;8.614;2023-05-07T09:53:58;29.45;40.36
77056;SHT30;67471;44.918;8.614;2023-05-07T09:57:07;29.59;40.09
77056;SHT30;67471;44.918;8.614;2023-05-07T10:00:12;29.43;40.46
77056;SHT30;67471;44.918;8.614;2023-05-07T10:03:27;29.56;40.20
77056;SHT30;67471;44.918;8.614;2023-05-07T10:06:38;29.41;39.83
77056;SHT30;67471;44.918;8.614;2023-05-07T10:09:42;29.38;39.97
77056;SHT30;67471;44.918;8.614;2023-05-07T10:12:56;29.59;39.82
77056;SHT30;67471;44.918;8.614;2023-05-07T10:16:07;29.46;39.90
77056;SHT30;67471;44.918;8.614;2023-05-07T10:19:17;29.53;40.11
77056;SHT30;67471;44.918;8.614;2023-05-07T10:22:24;29.82;39.38
77056;SHT30;67471;44.918;8.614;2023-05-07T10:25:32;29.82;39.68
77056;SHT30;67471;44.918;8.614;2023-05-07T10:28:43;29.67;39.71
77056;SHT30;67471;44.918;8.614;2023-05-07T10:31:57;28.71;40.77
77056;SHT30;67471;44.918;8.614;2023-05-07T10:35:08;28.91;40.93
77056;SHT30;67471;44.918;8.614;2023-05-07T10:38:13;29.26;40.16
77056;SHT30;67471;44.918;8.614;2023-05-07T10:41:20;29.39;39.62
77056;SHT30;67471;44.918;8.614;2023-05-07T10:44:28;29.29;39.59
77056;SHT30;67471;44.918;8.614;2023-05-07T10:47:35;29.19;40.26
77056;SHT30;67471;44.918;8.614;2023-05-07T10:50:41;29.31;40.45
77056;SHT30;67471;44.918;8.614;2023-05-07T10:53:45;29.45;39.50
77056;SHT30;67471;44.918;8.614;2023-05-07T10:56:54;29.26;40.30
77056;SHT30;67471;44.918;8.614;2023-05-07T11:03:31;28.03;42.87
77056;SHT30;67471;44.918;8.614;2023-05-07T11:06:42;28.84;41.74
77056;SHT30;67471;44.918;8.614;2023-05-07T11:10:06;29.12;40.89
77056;SHT30;67471;44.918;8.614;2023-05-07T11:13:44;29.41;39.79
77056;SHT30;67471;44.918;8.614;2023-05-07T11:17:02;29.31;39.62
77056;SHT30;67471;44.918;8.614;2023-05-07T11:20:06;29.26;39.63
77056;SHT30;67471;44.918;8.614;2023-05-07T11:26:55;27.92;41.27
77056;SHT30;67471;44.918;8.614;2023-05-07T11:30:01;28.02;40.10
77056;SHT30;67471;44.918;8.614;2023-05-07T11:33:06;27.77;41.13
77056;SHT30;67471;44.918;8.614;2023-05-07T11:36:10;27.35;40.83
77056;SHT30;67471;44.918;8.614;2023-05-07T11:39:27;27.92;40.83
77056;SHT30;67471;44.918;8.614;2023-05-07T11:42:35;27.98;41.98
77056;SHT30;67471;44.918;8.614;2023-05-07T11:45:40;27.91;42.35
77056;SHT30;67471;44.918;8.614;2023-05-07T11:48:44;28.22;41.44
77056;SHT30;67471;44.918;8.614;2023-05-07T11:51:48;28.46;40.76
77056;SHT30;67471;44.918;8.614;2023-05-07T11:54:53;28.49;41.16
77056;SHT30;67471;44.918;8.614;2023-05-07T11:57:58;28.86;40.69
77056;SHT30;67471;44.918;8.614;2023-05-07T12:01:02;29.11;39.58
77056;SHT30;67471;44.918;8.614;2023-05-07T12:04:06;29.08;39.41
77056;SHT30;67471;44.918;8.614;2023-05-07T12:07:14;29.08;39.53
77056;SHT30;67471;44.918;8.614;2023-05-07T12:10:19;28.81;38.32
77056;SHT30;67471;44.918;8.614;2023-05-07T12:13:24;28.20;38.90
77056;SHT30;67471;44.918;8.614;2023-05-07T12:16:29;27.54;40.45
77056;SHT30;67471;44.918;8.614;2023-05-07T12:19:38;27.13;41.16
77056;SHT30;67471;44.918;8.614;2023-05-07T12:22:43;27.00;41.65
77056;SHT30;67471;44.918;8.614;2023-05-07T12:25:46;26.62;42.86
77056;SHT30;67471;44.918;8.614;2023-05-07T12:28:51;26.66;42.79
77056;SHT30;67471;44.918;8.614;2023-05-07T12:31:54;26.76;42.65
77056;SHT30;67471;44.918;8.614;2023-05-07T12:34:58;26.73;42.55
77056;SHT30;67471;44.918;8.614;2023-05-07T12:38:02;26.69;42.70
77056;SHT30;67471;44.918;8.614;2023-05-07T12:41:10;26.52;43.04
77056;SHT30;67471;44.918;8.614;2023-05-07T12:44:15;26.49;43.26
77056;SHT30;67471;44.918;8.614;2023-05-07T12:47:18;26.46;43.64
77056;SHT30;67471;44.918;8.614;2023-05-07T12:50:22;26.46;43.66
77056;SHT30;67471;44.918;8.614;2023-05-07T12:53:27;26.35;43.90
77056;SHT30;67471;44.918;8.614;2023-05-07T12:56:31;26.14;44.04
77056;SHT30;67471;44.918;8.614;2023-05-07T12:59:37;26.18;43.88
77056;SHT30;67471;44.918;8.614;2023-05-07T13:02:42;26.20;43.84
77056;SHT30;67471;44.918;8.614;2023-05-07T13:05:48;26.13;44.20
77056;SHT30;67471;44.918;8.614;2023-05-07T13:08:52;26.08;44.40
77056;SHT30;67471;44.918;8.614;2023-05-07T13:11:57;26.02;44.52
77056;SHT30;67471;44.918;8.614;2023-05-07T13:15:04;26.11;44.28
77056;SHT30;67471;44.918;8.614;2023-05-07T13:18:08;26.00;44.73
77056;SHT30;67471;44.918;8.614;2023-05-07T13:21:14;26.09;44.68
77056;SHT30;67471;44.918;8.614;2023-05-07T13:24:18;26.28;44.44
77056;SHT30;67471;44.918;8.614;2023-05-07T13:27:22;26.24;44.48
77056;SHT30;67471;44.918;8.614;2023-05-07T13:30:26;26.51;44.13
77056;SHT30;67471;44.918;8.614;2023-05-07T13:33:29;26.56;44.35
77056;SHT30;67471;44.918;8.614;2023-05-07T13:36:33;26.84;43.91
77056;SHT30;67471;44.918;8.614;2023-05-07T13:39:40;27.04;43.57
77056;SHT30;67471;44.918;8.614;2023-05-07T13:42:44;27.43;42.94
77056;SHT30;67471;44.918;8.614;2023-05-07T13:45:48;27.81;42.12
77056;SHT30;67471;44.918;8.614;2023-05-07T13:48:52;27.92;41.98
77056;SHT30;67471;44.918;8.614;2023-05-07T13:51:55;28.17;41.27
77056;SHT30;67471;44.918;8.614;2023-05-07T13:55:00;28.16;41.07
77056;SHT30;67471;44.918;8.614;2023-05-07T13:58:04;28.22;40.87
77056;SHT30;67471;44.918;8.614;2023-05-07T14:01:07;28.12;41.20
77056;SHT30;67471;44.918;8.614;2023-05-07T14:04:11;28.20;40.74
77056;SHT30;67471;44.918;8.614;2023-05-07T14:07:15;28.19;41.19
77056;SHT30;67471;44.918;8.614;2023-05-07T14:10:19;28.22;41.20
77056;SHT30;67471;44.918;8.614;2023-05-07T14:13:22;28.20;40.76
77056;SHT30;67471;44.918;8.614;2023-05-07T14:16:26;27.58;37.52
77056;SHT30;67471;44.918;8.614;2023-05-07T14:19:30;27.26;38.05
77056;SHT30;67471;44.918;8.614;2023-05-07T14:22:34;27.15;36.87
77056;SHT30;67471;44.918;8.614;2023-05-07T14:25:38;27.15;37.04
77056;SHT30;67471;44.918;8.614;2023-05-07T14:28:42;27.30;35.55
77056;SHT30;67471;44.918;8.614;2023-05-07T14:31:49;27.26;34.67
77056;SHT30;67471;44.918;8.614;2023-05-07T14:34:53;27.34;33.08
77056;SHT30;67471;44.918;8.614;2023-05-07T14:37:57;27.37;32.07
77056;SHT30;67471;44.918;8.614;2023-05-07T14:41:01;27.31;31.19
77056;SHT30;67471;44.918;8.614;2023-05-07T14:44:11;27.52;30.31
77056;SHT30;67471;44.918;8.614;2023-05-07T14:47:15;27.30;30.69
77056;SHT30;67471;44.918;8.614;2023-05-07T14:50:19;27.30;30.11
77056;SHT30;67471;44.918;8.614;2023-05-07T14:53:23;27.40;30.07
77056;SHT30;67471;44.918;8.614;2023-05-07T14:56:29;27.34;31.15
77056;SHT30;67471;44.918;8.614;2023-05-07T14:59:32;27.18;31.04
77056;SHT30;67471;44.918;8.614;2023-05-07T15:02:36;27.18;30.42
77056;SHT30;67471;44.918;8.614;2023-05-07T15:05:40;27.37;29.73
77056;SHT30;67471;44.918;8.614;2023-05-07T15:08:44;27.38;29.80
77056;SHT30;67471;44.918;8.614;2023-05-07T15:11:49;27.35;29.86
77056;SHT30;67471;44.918;8.614;2023-05-07T15:14:52;27.26;30.09
77056;SHT30;67471;44.918;8.614;2023-05-07T15:17:56;27.18;30.27
77056;SHT30;67471;44.918;8.614;2023-05-07T15:21:01;27.27;30.44
77056;SHT30;67471;44.918;8.614;2023-05-07T15:24:05;27.33;30.35
77056;SHT30;67471;44.918;8.614;2023-05-07T15:27:10;27.29;30.54
77056;SHT30;67471;44.918;8.614;2023-05-07T15:30:14;27.14;31.11
77056;SHT30;67471;44.918;8.614;2023-05-07T15:33:18;26.96;31.54
77056;SHT30;67471;44.918;8.614;2023-05-07T15:36:22;26.83;31.73
77056;SHT30;67471;44.918;8.614;2023-05-07T15:39:26;26.78;31.63
77056;SHT30;67471;44.918;8.614;2023-05-07T15:42:29;26.83;31.69
77056;SHT30;67471;44.918;8.614;2023-05-07T15:45:41;26.80;31.74
77056;SHT30;67471;44.918;8.614;2023-05-07T15:48:45;26.71;32.01
77056;SHT30;67471;44.918;8.614;2023-05-07T15:51:49;26.46;32.51
77056;SHT30;67471;44.918;8.614;2023-05-07T15:54:55;26.38;32.93
77056;SHT30;67471;44.918;8.614;2023-05-07T15:57:59;26.25;33.51
77056;SHT30;67471;44.918;8.614;2023-05-07T16:01:03;25.98;34.14
77056;SHT30;67471;44.918;8.614;2023-05-07T16:04:07;25.93;33.76
77056;SHT30;67471;44.918;8.614;2023-05-07T16:07:11;25.50;32.88
77056;SHT30;67471;44.918;8.614;2023-05-07T16:10:15;25.26;33.03
77056;SHT30;67471;44.918;8.614;2023-05-07T16:13:19;25.11;33.08
77056;SHT30;67471;44.918;8.614;2023-05-07T16:16:23;25.05;33.13
77056;SHT30;67471;44.918;8.614;2023-05-07T16:19:28;24.88;32.83
77056;SHT30;67471;44.918;8.614;2023-05-07T16:22:33;24.81;32.68
77056;SHT30;67471;44.918;8.614;2023-05-07T16:25:37;24.79;33.03
77056;SHT30;67471;44.918;8.614;2023-05-07T16:28:41;24.72;33.00
77056;SHT30;67471;44.918;8.614;2023-05-07T16:31:45;24.81;33.07
77056;SHT30;67471;44.918;8.614;2023-05-07T16:34:49;24.76;33.16
77056;SHT30;67471;44.918;8.614;2023-05-07T16:37:53;24.40;33.49
77056;SHT30;67471;44.918;8.614;2023-05-07T16:40:57;24.38;33.67
77056;SHT30;67471;44.918;8.614;2023-05-07T16:44:01;24.27;33.89
77056;SHT30;67471;44.918;8.614;2023-05-07T16:47:06;24.36;33.47
77056;SHT30;67471;44.918;8.614;2023-05-07T16:50:10;24.31;33.56
77056;SHT30;67471;44.918;8.614;2023-05-07T16:53:14;24.24;33.92
77056;SHT30;67471;44.918;8.614;2023-05-07T16:56:18;24.10;34.21
77056;SHT30;67471;44.918;8.614;2023-05-07T16:59:22;24.02;34.19
77056;SHT30;67471;44.918;8.614;2023-05-07T17:02:25;23.95;34.33
77056;SHT30;67471;44.918;8.614;2023-05-07T17:05:30;23.87;34.81
77056;SHT30;67471;44.918;8.614;2023-05-07T17:08:34;23.95;34.89
77056;SHT30;67471;44.918;8.614;2023-05-07T17:11:38;23.86;35.05
77056;SHT30;67471;44.918;8.614;2023-05-07T17:14:41;23.80;35.22
77056;SHT30;67471;44.918;8.614;2023-05-07T17:17:45;23.62;35.87
77056;SHT30;67471;44.918;8.614;2023-05-07T17:20:50;23.56;36.01
77056;SHT30;67471;44.918;8.614;2023-05-07T17:23:54;23.51;36.23
77056;SHT30;67471;44.918;8.614;2023-05-07T17:26:58;23.49;36.57
77056;SHT30;67471;44.918;8.614;2023-05-07T17:30:01;23.48;36.76
77056;SHT30;67471;44.918;8.614;2023-05-07T17:33:07;23.46;37.01
77056;SHT30;67471;44.918;8.614;2023-05-07T17:36:10;23.37;37.34
77056;SHT30;67471;44.918;8.614;2023-05-07T17:39:14;23.31;37.64
77056;SHT30;67471;44.918;8.614;2023-05-07T17:42:18;23.21;38.04
77056;SHT30;67471;44.918;8.614;2023-05-07T17:45:22;23.24;38.31
77056;SHT30;67471;44.918;8.614;2023-05-07T17:48:27;23.32;38.27
77056;SHT30;67471;44.918;8.614;2023-05-07T17:51:30;23.35;38.09
77056;SHT30;67471;44.918;8.614;2023-05-07T17:54:41;23.34;37.75
77056;SHT30;67471;44.918;8.614;2023-05-07T17:57:47;23.29;38.10
77056;SHT30;67471;44.918;8.614;2023-05-07T18:00:57;23.32;38.53
77056;SHT30;67471;44.918;8.614;2023-05-07T18:04:01;23.41;38.19
77056;SHT30;67471;44.918;8.614;2023-05-07T18:07:06;23.38;37.99
77056;SHT30;67471;44.918;8.614;2023-05-07T18:10:09;23.31;37.71
77056;SHT30;67471;44.918;8.614;2023-05-07T18:13:16;23.28;38.11
77056;SHT30;67471;44.918;8.614;2023-05-07T18:16:20;23.24;37.94
77056;SHT30;67471;44.918;8.614;2023-05-07T18:19:32;23.31;37.41
77056;SHT30;67471;44.918;8.614;2023-05-07T18:22:36;23.21;37.61
77056;SHT30;67471;44.918;8.614;2023-05-07T18:25:43;23.17;37.57
77056;SHT30;67471;44.918;8.614;2023-05-07T18:28:47;22.98;37.82
77056;SHT30;67471;44.918;8.614;2023-05-07T18:31:54;23.10;37.81
77056;SHT30;67471;44.918;8.614;2023-05-07T18:34:57;22.83;38.23
77056;SHT30;67471;44.918;8.614;2023-05-07T18:38:04;22.70;38.71
77056;SHT30;67471;44.918;8.614;2023-05-07T18:41:08;22.76;38.60
77056;SHT30;67471;44.918;8.614;2023-05-07T18:44:12;22.64;38.92
77056;SHT30;67471;44.918;8.614;2023-05-07T18:47:19;22.55;39.18
77056;SHT30;67471;44.918;8.614;2023-05-07T18:50:23;22.55;39.18
77056;SHT30;67471;44.918;8.614;2023-05-07T18:53:28;22.37;39.37
77056;SHT30;67471;44.918;8.614;2023-05-07T18:56:34;22.36;39.71
77056;SHT30;67471;44.918;8.614;2023-05-07T18:59:38;22.25;39.93
77056;SHT30;67471;44.918;8.614;2023-05-07T19:02:44;22.23;40.03
77056;SHT30;67471;44.918;8.614;2023-05-07T19:05:48;22.23;40.27
77056;SHT30;67471;44.918;8.614;2023-05-07T19:08:52;22.25;40.28
77056;SHT30;67471;44.918;8.614;2023-05-07T19:11:57;22.32;40.41
77056;SHT30;67471;44.918;8.614;2023-05-07T19:15:01;22.32;40.69
77056;SHT30;67471;44.918;8.614;2023-05-07T19:18:04;22.19;41.06
77056;SHT30;67471;44.918;8.614;2023-05-07T19:21:11;22.04;41.44
77056;SHT30;67471;44.918;8.614;2023-05-07T19:24:15;22.01;41.66
77056;SHT30;67471;44.918;8.614;2023-05-07T19:27:19;21.91;42.07
77056;SHT30;67471;44.918;8.614;2023-05-07T19:30:22;21.94;42.66
77056;SHT30;67471;44.918;8.614;2023-05-07T19:33:26;21.97;42.99
77056;SHT30;67471;44.918;8.614;2023-05-07T19:36:32;22.06;43.02